sensor_id;sensor_type;location;lat;lon;timestamp;pressure;altitude;pressure_sealevel;temperature;humidity
75936;BME280;64614;32.062;34.834;2022-11-12T00:02:23;101249.19;;;24.61;55.81
75936;BME280;64614;32.062;34.834;2022-11-12T00:04:49;101250.69;;;24.67;55.72
75936;BME280;64614;32.062;34.834;2022-11-12T00:09:50;101255.28;;;24.58;56.26
75936;BME280;64614;32.062;34.834;2022-11-12T00:12:15;101251.34;;;24.50;56.59
75936;BME280;64614;32.062;34.834;2022-11-12T00:14:42;101255.41;;;24.53;56.77
75936;BME280;64614;32.062;34.834;2022-11-12T00:17:08;101259.28;;;24.52;56.70
75936;BME280;64614;32.062;34.834;2022-11-12T00:19:34;101254.97;;;24.60;56.31
75936;BME280;64614;32.062;34.834;2022-11-12T00:21:59;101260.25;;;24.56;56.50
75936;BME280;64614;32.062;34.834;2022-11-12T00:24:26;101254.91;;;24.51;56.72
75936;BME280;64614;32.062;34.834;2022-11-12T00:26:55;101250.53;;;24.50;56.62
75936;BME280;64614;32.062;34.834;2022-11-12T00:29:21;101252.75;;;24.48;56.34
75936;BME280;64614;32.062;34.834;2022-11-12T00:31:47;101244.66;;;24.43;56.72
75936;BME280;64614;32.062;34.834;2022-11-12T00:34:12;101248.53;;;24.41;56.41
75936;BME280;64614;32.062;34.834;2022-11-12T00:36:41;101247.09;;;24.44;56.39
75936;BME280;64614;32.062;34.834;2022-11-12T00:39:07;101249.53;;;24.46;56.51
75936;BME280;64614;32.062;34.834;2022-11-12T00:41:32;101256.63;;;24.47;56.85
75936;BME280;64614;32.062;34.834;2022-11-12T00:43:58;101253.41;;;24.45;56.82
75936;BME280;64614;32.062;34.834;2022-11-12T00:46:24;101259.16;;;24.57;56.57
75936;BME280;64614;32.062;34.834;2022-11-12T00:48:51;101254.59;;;24.52;56.80
75936;BME280;64614;32.062;34.834;2022-11-12T00:51:16;101256.41;;;24.57;56.34
75936;BME280;64614;32.062;34.834;2022-11-12T00:53:42;101249.41;;;24.51;56.89
75936;BME280;64614;32.062;34.834;2022-11-12T00:56:35;101251.22;;;24.55;56.43
75936;BME280;64614;32.062;34.834;2022-11-12T00:59:01;101252.34;;;24.54;56.71
75936;BME280;64614;32.062;34.834;2022-11-12T01:01:27;101249.19;;;24.61;56.65
75936;BME280;64614;32.062;34.834;2022-11-12T01:03:56;101251.78;;;24.66;56.44
75936;BME280;64614;32.062;34.834;2022-11-12T01:06:23;101249.69;;;24.63;56.42
75936;BME280;64614;32.062;34.834;2022-11-12T01:08:50;101237.69;;;24.59;56.66
75936;BME280;64614;32.062;34.834;2022-11-12T01:11:24;101231.22;;;24.55;56.48
75936;BME280;64614;32.062;34.834;2022-11-12T01:13:56;101232.00;;;24.55;56.47
75936;BME280;64614;32.062;34.834;2022-11-12T01:16:24;101232.00;;;24.55;56.75
75936;BME280;64614;32.062;34.834;2022-11-12T01:18:56;101222.47;;;24.53;56.41
75936;BME280;64614;32.062;34.834;2022-11-12T01:21:24;101228.47;;;24.55;56.59
75936;BME280;64614;32.062;34.834;2022-11-12T01:23:50;101229.16;;;24.47;56.39
75936;BME280;64614;32.062;34.834;2022-11-12T01:26:19;101230.31;;;24.46;57.14
75936;BME280;64614;32.062;34.834;2022-11-12T01:28:45;101229.00;;;24.43;56.92
75936;BME280;64614;32.062;34.834;2022-11-12T01:31:23;101227.63;;;24.54;57.19
75936;BME280;64614;32.062;34.834;2022-11-12T01:33:53;101232.00;;;24.55;56.73
75936;BME280;64614;32.062;34.834;2022-11-12T01:36:19;101233.13;;;24.54;56.24
75936;BME280;64614;32.062;34.834;2022-11-12T01:38:46;101233.94;;;24.55;56.00
75936;BME280;64614;32.062;34.834;2022-11-12T01:41:16;101242.38;;;24.59;56.34
75936;BME280;64614;32.062;34.834;2022-11-12T01:43:42;101238.81;;;24.58;56.29
75936;BME280;64614;32.062;34.834;2022-11-12T01:46:24;101244.47;;;24.62;55.57
75936;BME280;64614;32.062;34.834;2022-11-12T01:48:57;101245.91;;;24.59;55.99
75936;BME280;64614;32.062;34.834;2022-11-12T01:51:32;101244.47;;;24.62;55.39
75936;BME280;64614;32.062;34.834;2022-11-12T01:54:01;101249.19;;;24.61;55.71
75936;BME280;64614;32.062;34.834;2022-11-12T01:56:29;101242.56;;;24.62;55.84
75936;BME280;64614;32.062;34.834;2022-11-12T01:59:02;101245.59;;;24.61;55.24
75936;BME280;64614;32.062;34.834;2022-11-12T02:01:29;101242.25;;;24.64;55.50
75936;BME280;64614;32.062;34.834;2022-11-12T02:03:55;101246.28;;;24.66;54.79
75936;BME280;64614;32.062;34.834;2022-11-12T02:06:23;101247.94;;;24.67;55.06
75936;BME280;64614;32.062;34.834;2022-11-12T02:08:49;101238.69;;;24.63;55.19
75936;BME280;64614;32.062;34.834;2022-11-12T02:11:18;101247.41;;;24.65;54.89
75936;BME280;64614;32.062;34.834;2022-11-12T02:13:45;101243.00;;;24.55;55.08
75936;BME280;64614;32.062;34.834;2022-11-12T02:16:37;101248.16;;;24.57;55.30
75936;BME280;64614;32.062;34.834;2022-11-12T02:19:05;101238.94;;;24.53;55.67
75936;BME280;64614;32.062;34.834;2022-11-12T02:21:31;101251.41;;;24.59;55.57
75936;BME280;64614;32.062;34.834;2022-11-12T02:26:39;101255.78;;;24.60;55.50
75936;BME280;64614;32.062;34.834;2022-11-12T02:29:06;101258.72;;;24.64;55.72
75936;BME280;64614;32.062;34.834;2022-11-12T02:31:32;101252.09;;;24.65;55.66
75936;BME280;64614;32.062;34.834;2022-11-12T02:33:57;101246.63;;;24.65;55.70
75936;BME280;64614;32.062;34.834;2022-11-12T02:36:23;101258.53;;;24.60;56.19
75936;BME280;64614;32.062;34.834;2022-11-12T02:38:49;101256.41;;;24.57;56.10
75936;BME280;64614;32.062;34.834;2022-11-12T02:41:15;101252.66;;;24.53;56.28
75936;BME280;64614;32.062;34.834;2022-11-12T02:43:41;101260.25;;;24.56;56.03
75936;BME280;64614;32.062;34.834;2022-11-12T02:46:07;101252.97;;;24.51;56.37
75936;BME280;64614;32.062;34.834;2022-11-12T02:48:32;101262.41;;;24.59;56.30
75936;BME280;64614;32.062;34.834;2022-11-12T02:50:58;101264.94;;;24.55;56.04
75936;BME280;64614;32.062;34.834;2022-11-12T02:53:24;101260.25;;;24.56;56.06
75936;BME280;64614;32.062;34.834;2022-11-12T02:55:50;101263.94;;;24.51;56.14
75936;BME280;64614;32.062;34.834;2022-11-12T02:58:15;101272.06;;;24.56;56.14
75936;BME280;64614;32.062;34.834;2022-11-12T03:00:41;101264.56;;;24.48;56.58
75936;BME280;64614;32.062;34.834;2022-11-12T03:03:07;101263.00;;;24.56;56.78
75936;BME280;64614;32.062;34.834;2022-11-12T03:05:35;101267.38;;;24.57;56.37
75936;BME280;64614;32.062;34.834;2022-11-12T03:08:08;101266.59;;;24.56;56.37
75936;BME280;64614;32.062;34.834;2022-11-12T03:10:36;101275.13;;;24.55;56.12
75936;BME280;64614;32.062;34.834;2022-11-12T03:13:03;101265.09;;;24.50;56.11
75936;BME280;64614;32.062;34.834;2022-11-12T03:15:29;101274.13;;;24.51;55.40
75936;BME280;64614;32.062;34.834;2022-11-12T03:17:59;101278.00;;;24.50;55.64
75936;BME280;64614;32.062;34.834;2022-11-12T03:20:25;101275.25;;;24.50;55.47
75936;BME280;64614;32.062;34.834;2022-11-12T03:23:10;101283.47;;;24.50;55.50
75936;BME280;64614;32.062;34.834;2022-11-12T03:25:36;101268.94;;;24.49;55.44
75936;BME280;64614;32.062;34.834;2022-11-12T03:28:04;101273.50;;;24.54;55.53
75936;BME280;64614;32.062;34.834;2022-11-12T03:30:32;101278.38;;;24.57;55.83
75936;BME280;64614;32.062;34.834;2022-11-12T03:32:58;101280.00;;;24.58;55.53
75936;BME280;64614;32.062;34.834;2022-11-12T03:35:27;101279.19;;;24.58;55.37
75936;BME280;64614;32.062;34.834;2022-11-12T03:37:59;101278.38;;;24.57;54.78
75936;BME280;64614;32.062;34.834;2022-11-12T03:40:26;101282.03;;;24.52;55.43
75936;BME280;64614;32.062;34.834;2022-11-12T03:42:52;101289.34;;;24.57;54.90
75936;BME280;64614;32.062;34.834;2022-11-12T03:45:19;101294.38;;;24.55;54.68
75936;BME280;64614;32.062;34.834;2022-11-12T03:47:47;101291.09;;;24.53;54.98
75936;BME280;64614;32.062;34.834;2022-11-12T03:50:15;101306.06;;;24.47;55.32
75936;BME280;64614;32.062;34.834;2022-11-12T03:52:48;101303.81;;;24.49;55.33
75936;BME280;64614;32.062;34.834;2022-11-12T03:55:16;101315.13;;;24.47;55.42
75936;BME280;64614;32.062;34.834;2022-11-12T03:57:43;101308.72;;;24.38;55.58
75936;BME280;64614;32.062;34.834;2022-11-12T04:00:10;101306.78;;;24.38;55.89
75936;BME280;64614;32.062;34.834;2022-11-12T04:02:36;101315.03;;;24.38;55.98
75936;BME280;64614;32.062;34.834;2022-11-12T04:05:03;101319.28;;;24.45;55.82
75936;BME280;64614;32.062;34.834;2022-11-12T04:08:05;101324.66;;;24.50;55.96
75936;BME280;64614;32.062;34.834;2022-11-12T04:10:49;101331.78;;;24.51;56.00
75936;BME280;64614;32.062;34.834;2022-11-12T04:13:15;101334.00;;;24.49;56.40
75936;BME280;64614;32.062;34.834;2022-11-12T04:15:55;101341.25;;;24.45;56.27
75936;BME280;64614;32.062;34.834;2022-11-12T04:18:39;101345.69;;;24.54;56.29
75936;BME280;64614;32.062;34.834;2022-11-12T04:21:24;101341.03;;;24.55;56.51
75936;BME280;64614;32.062;34.834;2022-11-12T04:24:09;101346.53;;;24.55;56.00
75936;BME280;64614;32.062;34.834;2022-11-12T04:26:55;101354.25;;;24.53;56.22
75936;BME280;64614;32.062;34.834;2022-11-12T04:29:20;101364.94;;;24.54;56.39
75936;BME280;64614;32.062;34.834;2022-11-12T04:32:04;101366.88;;;24.54;56.54
75936;BME280;64614;32.062;34.834;2022-11-12T04:34:30;101364.94;;;24.54;56.64
75936;BME280;64614;32.062;34.834;2022-11-12T04:36:56;101355.88;;;24.54;56.12
75936;BME280;64614;32.062;34.834;2022-11-12T04:39:21;101370.22;;;24.51;55.94
75936;BME280;64614;32.062;34.834;2022-11-12T04:41:47;101367.09;;;24.30;54.02
75936;BME280;64614;32.062;34.834;2022-11-12T04:44:31;101372.78;;;24.47;53.35
75936;BME280;64614;32.062;34.834;2022-11-12T04:47:15;101375.09;;;24.54;53.94
75936;BME280;64614;32.062;34.834;2022-11-12T04:49:41;101372.25;;;24.59;54.46
75936;BME280;64614;32.062;34.834;2022-11-12T04:52:07;101376.31;;;24.62;54.44
75936;BME280;64614;32.062;34.834;2022-11-12T04:54:33;101372.78;;;24.47;53.54
75936;BME280;64614;32.062;34.834;2022-11-12T04:56:59;101369.50;;;24.59;54.75
75936;BME280;64614;32.062;34.834;2022-11-12T04:59:25;101370.94;;;24.56;54.68
75936;BME280;64614;32.062;34.834;2022-11-12T05:01:51;101375.59;;;24.56;52.00
75936;BME280;64614;32.062;34.834;2022-11-12T05:04:22;101375.59;;;24.56;49.67
75936;BME280;64614;32.062;34.834;2022-11-12T05:06:52;101382.84;;;24.52;49.29
75936;BME280;64614;32.062;34.834;2022-11-12T05:09:21;101382.31;;;24.50;48.65
75936;BME280;64614;32.062;34.834;2022-11-12T05:11:47;101390.03;;;24.48;48.82
75936;BME280;64614;32.062;34.834;2022-11-12T05:14:14;101386.19;;;24.49;49.08
75936;BME280;64614;32.062;34.834;2022-11-12T05:16:40;101392.78;;;24.48;48.21
75936;BME280;64614;32.062;34.834;2022-11-12T05:19:06;101399.41;;;24.47;48.78
75936;BME280;64614;32.062;34.834;2022-11-12T05:21:32;101397.16;;;24.49;48.44
75936;BME280;64614;32.062;34.834;2022-11-12T05:24:17;101393.31;;;24.50;48.98
75936;BME280;64614;32.062;34.834;2022-11-12T05:26:43;101393.31;;;24.50;48.54
75936;BME280;64614;32.062;34.834;2022-11-12T05:29:08;101402.56;;;24.54;49.32
75936;BME280;64614;32.062;34.834;2022-11-12T05:31:34;101399.19;;;24.57;49.33
75936;BME280;64614;32.062;34.834;2022-11-12T05:34:00;101408.25;;;24.58;49.11
75936;BME280;64614;32.062;34.834;2022-11-12T05:36:26;101404.69;;;24.57;48.85
75936;BME280;64614;32.062;34.834;2022-11-12T05:38:54;101407.44;;;24.57;48.83
75936;BME280;64614;32.062;34.834;2022-11-12T05:41:20;101404.06;;;24.60;48.43
75936;BME280;64614;32.062;34.834;2022-11-12T05:43:46;101407.34;;;24.62;47.95
75936;BME280;64614;32.062;34.834;2022-11-12T05:46:11;101413.31;;;24.64;48.64
75936;BME280;64614;32.062;34.834;2022-11-12T05:48:37;101411.41;;;24.65;49.29
75936;BME280;64614;32.062;34.834;2022-11-12T05:51:03;101411.06;;;24.66;49.48
75936;BME280;64614;32.062;34.834;2022-11-12T05:53:28;101405.19;;;24.59;50.76
75936;BME280;64614;32.062;34.834;2022-11-12T05:56:00;101407.94;;;24.59;50.33
75936;BME280;64614;32.062;34.834;2022-11-12T05:58:25;101410.81;;;24.54;50.00
75936;BME280;64614;32.062;34.834;2022-11-12T06:00:51;101415.66;;;24.57;49.77
75936;BME280;64614;32.062;34.834;2022-11-12T06:03:17;101413.75;;;24.58;49.51
75936;BME280;64614;32.062;34.834;2022-11-12T06:05:42;101412.63;;;24.59;49.78
75936;BME280;64614;32.062;34.834;2022-11-12T06:08:08;101418.13;;;24.59;50.06
75936;BME280;64614;32.062;34.834;2022-11-12T06:10:34;101417.94;;;24.55;50.68
75936;BME280;64614;32.062;34.834;2022-11-12T06:12:59;101420.34;;;24.56;50.84
75936;BME280;64614;32.062;34.834;2022-11-12T06:15:26;101415.38;;;24.59;50.52
75936;BME280;64614;32.062;34.834;2022-11-12T06:17:53;101418.31;;;24.62;50.79
75936;BME280;64614;32.062;34.834;2022-11-12T06:20:20;101415.41;;;24.73;51.13
75936;BME280;64614;32.062;34.834;2022-11-12T06:22:46;101414.06;;;24.70;51.19
75936;BME280;64614;32.062;34.834;2022-11-12T06:25:12;101425.88;;;24.70;51.07
75936;BME280;64614;32.062;34.834;2022-11-12T06:27:38;101425.03;;;24.70;51.13
75936;BME280;64614;32.062;34.834;2022-11-12T06:30:05;101423.41;;;24.69;51.20
75936;BME280;64614;32.062;34.834;2022-11-12T06:32:31;101434.31;;;24.74;51.17
75936;BME280;64614;32.062;34.834;2022-11-12T06:34:56;101421.88;;;24.77;51.26
75936;BME280;64614;32.062;34.834;2022-11-12T06:37:22;101429.59;;;24.75;51.01
75936;BME280;64614;32.062;34.834;2022-11-12T06:39:48;101429.00;;;24.78;51.07
75936;BME280;64614;32.062;34.834;2022-11-12T06:42:14;101430.44;;;24.75;50.86
75936;BME280;64614;32.062;34.834;2022-11-12T06:44:41;101429.94;;;24.73;51.16
75936;BME280;64614;32.062;34.834;2022-11-12T06:47:08;101437.25;;;24.78;51.17
75936;BME280;64614;32.062;34.834;2022-11-12T06:49:34;101432.25;;;24.80;50.92
75936;BME280;64614;32.062;34.834;2022-11-12T06:51:59;101429.72;;;24.83;51.38
75936;BME280;64614;32.062;34.834;2022-11-12T06:54:25;101425.34;;;24.82;51.00
75936;BME280;64614;32.062;34.834;2022-11-12T06:56:51;101428.88;;;24.83;51.11
75936;BME280;64614;32.062;34.834;2022-11-12T06:59:17;101433.44;;;24.87;51.01
75936;BME280;64614;32.062;34.834;2022-11-12T07:01:42;101433.44;;;24.87;50.18
75936;BME280;64614;32.062;34.834;2022-11-12T07:04:08;101440.38;;;24.85;49.42
75936;BME280;64614;32.062;34.834;2022-11-12T07:06:35;101435.72;;;24.85;49.05
75936;BME280;64614;32.062;34.834;2022-11-12T07:09:01;101439.28;;;24.72;48.37
75936;BME280;64614;32.062;34.834;2022-11-12T07:11:27;101438.88;;;24.79;48.73
75936;BME280;64614;32.062;34.834;2022-11-12T07:13:53;101437.13;;;24.83;49.13
75936;BME280;64614;32.062;34.834;2022-11-12T07:16:19;101438.56;;;24.80;48.57
75936;BME280;64614;32.062;34.834;2022-11-12T07:18:45;101433.38;;;24.79;48.92
75936;BME280;64614;32.062;34.834;2022-11-12T07:21:22;101428.28;;;24.72;47.85
75936;BME280;64614;32.062;34.834;2022-11-12T07:23:48;101434.50;;;24.78;48.75
75936;BME280;64614;32.062;34.834;2022-11-12T07:26:14;101442.31;;;24.84;48.75
75936;BME280;64614;32.062;34.834;2022-11-12T07:28:41;101443.44;;;24.83;48.86
75936;BME280;64614;32.062;34.834;2022-11-12T07:31:09;101436.63;;;24.81;47.77
75936;BME280;64614;32.062;34.834;2022-11-12T07:33:35;101441.50;;;24.84;48.11
75936;BME280;64614;32.062;34.834;2022-11-12T07:38:30;101437.81;;;24.88;47.99
75936;BME280;64614;32.062;34.834;2022-11-12T07:41:05;101430.41;;;24.89;46.33
75936;BME280;64614;32.062;34.834;2022-11-12T07:43:33;101434.78;;;24.90;46.02
75936;BME280;64614;32.062;34.834;2022-11-12T07:46:06;101425.22;;;24.87;45.03
75936;BME280;64614;32.062;34.834;2022-11-12T07:48:33;101434.56;;;24.86;44.88
75936;BME280;64614;32.062;34.834;2022-11-12T07:51:04;101428.78;;;24.88;46.58
75936;BME280;64614;32.062;34.834;2022-11-12T07:53:30;101425.72;;;24.90;45.61
75936;BME280;64614;32.062;34.834;2022-11-12T07:56:00;101429.78;;;24.92;45.04
75936;BME280;64614;32.062;34.834;2022-11-12T07:58:27;101421.06;;;24.90;44.58
75936;BME280;64614;32.062;34.834;2022-11-12T08:00:54;101421.53;;;24.92;43.64
75936;BME280;64614;32.062;34.834;2022-11-12T08:03:20;101415.03;;;24.88;42.44
75936;BME280;64614;32.062;34.834;2022-11-12T08:05:46;101424.09;;;24.88;44.13
75936;BME280;64614;32.062;34.834;2022-11-12T08:08:12;101414.41;;;24.91;43.62
75936;BME280;64614;32.062;34.834;2022-11-12T08:10:39;101411.97;;;24.90;42.91
75936;BME280;64614;32.062;34.834;2022-11-12T08:13:05;101413.72;;;24.85;42.64
75936;BME280;64614;32.062;34.834;2022-11-12T08:15:32;101405.50;;;24.85;41.74
75936;BME280;64614;32.062;34.834;2022-11-12T08:17:57;101411.28;;;24.84;41.60
75936;BME280;64614;32.062;34.834;2022-11-12T08:20:23;101405.28;;;24.82;41.18
75936;BME280;64614;32.062;34.834;2022-11-12T08:22:49;101399.59;;;24.78;41.29
75936;BME280;64614;32.062;34.834;2022-11-12T08:25:26;101397.03;;;24.82;41.10
75936;BME280;64614;32.062;34.834;2022-11-12T08:27:58;101402.22;;;24.83;41.17
75936;BME280;64614;32.062;34.834;2022-11-12T08:30:25;101390.41;;;24.83;41.02
75936;BME280;64614;32.062;34.834;2022-11-12T08:32:59;101393.06;;;24.88;41.06
75936;BME280;64614;32.062;34.834;2022-11-12T08:35:26;101380.97;;;24.89;41.29
75936;BME280;64614;32.062;34.834;2022-11-12T08:38:00;101385.22;;;24.95;41.86
75936;BME280;64614;32.062;34.834;2022-11-12T08:40:27;101379.19;;;24.93;41.87
75936;BME280;64614;32.062;34.834;2022-11-12T08:43:01;101381.34;;;24.96;41.33
75936;BME280;64614;32.062;34.834;2022-11-12T08:45:35;101365.34;;;24.98;41.35
75936;BME280;64614;32.062;34.834;2022-11-12T08:48:08;101377.16;;;24.99;41.50
75936;BME280;64614;32.062;34.834;2022-11-12T08:50:35;101364.22;;;24.99;41.34
75936;BME280;64614;32.062;34.834;2022-11-12T08:53:02;101370.84;;;24.98;41.12
75936;BME280;64614;32.062;34.834;2022-11-12T08:55:30;101367.97;;;25.03;41.38
75936;BME280;64614;32.062;34.834;2022-11-12T08:57:56;101356.97;;;25.03;41.31
75936;BME280;64614;32.062;34.834;2022-11-12T09:00:36;101352.78;;;25.06;41.47
75936;BME280;64614;32.062;34.834;2022-11-12T09:03:03;101354.09;;;25.09;41.52
75936;BME280;64614;32.062;34.834;2022-11-12T09:05:29;101352.97;;;25.10;40.32
75936;BME280;64614;32.062;34.834;2022-11-12T09:07:59;101354.09;;;25.09;41.16
75936;BME280;64614;32.062;34.834;2022-11-12T09:10:25;101339.88;;;25.07;41.31
75936;BME280;64614;32.062;34.834;2022-11-12T09:12:52;101336.81;;;25.08;41.18
75936;BME280;64614;32.062;34.834;2022-11-12T09:15:19;101320.63;;;25.07;41.46
75936;BME280;64614;32.062;34.834;2022-11-12T09:17:45;101321.81;;;25.14;41.46
75936;BME280;64614;32.062;34.834;2022-11-12T09:20:10;101318.38;;;25.09;40.64
75936;BME280;64614;32.062;34.834;2022-11-12T09:22:36;101310.00;;;25.14;40.47
75936;BME280;64614;32.062;34.834;2022-11-12T09:25:02;101321.31;;;25.12;40.62
75936;BME280;64614;32.062;34.834;2022-11-12T09:27:28;101311.94;;;25.13;41.14
75936;BME280;64614;32.062;34.834;2022-11-12T09:29:54;101302.56;;;25.14;40.99
75936;BME280;64614;32.062;34.834;2022-11-12T09:32:19;101310.81;;;25.14;41.37
75936;BME280;64614;32.062;34.834;2022-11-12T09:34:45;101316.19;;;25.19;40.05
75936;BME280;64614;32.062;34.834;2022-11-12T09:37:12;101309.88;;;25.19;39.85
75936;BME280;64614;32.062;34.834;2022-11-12T09:39:37;101311.81;;;25.18;39.61
75936;BME280;64614;32.062;34.834;2022-11-12T09:42:08;101301.94;;;25.17;39.01
75936;BME280;64614;32.062;34.834;2022-11-12T09:44:39;101305.03;;;25.16;38.44
75936;BME280;64614;32.062;34.834;2022-11-12T09:47:13;101305.50;;;25.18;38.20
75936;BME280;64614;32.062;34.834;2022-11-12T09:49:49;101301.13;;;25.17;37.97
75936;BME280;64614;32.062;34.834;2022-11-12T09:54:43;101292.41;;;25.15;37.94
75936;BME280;64614;32.062;34.834;2022-11-12T09:57:12;101302.75;;;25.18;38.50
75936;BME280;64614;32.062;34.834;2022-11-12T09:59:39;101293.09;;;25.21;39.29
75936;BME280;64614;32.062;34.834;2022-11-12T10:15:30;101294.03;;;25.16;40.29
75936;BME280;64614;32.062;34.834;2022-11-12T10:18:44;101291.38;;;25.11;41.05
75936;BME280;64614;32.062;34.834;2022-11-12T10:21:39;101270.88;;;25.17;40.25
75936;BME280;64614;32.062;34.834;2022-11-12T10:24:09;101268.78;;;25.14;40.33
75936;BME280;64614;32.062;34.834;2022-11-12T10:26:57;101275.75;;;25.20;40.23
75936;BME280;64614;32.062;34.834;2022-11-12T10:29:35;101266.72;;;25.19;40.35
75936;BME280;64614;32.062;34.834;2022-11-12T10:32:03;101270.59;;;25.18;40.60
75936;BME280;64614;32.062;34.834;2022-11-12T10:34:28;101272.22;;;25.19;40.71
75936;BME280;64614;32.062;34.834;2022-11-12T10:37:17;101264.94;;;25.24;40.79
75936;BME280;64614;32.062;34.834;2022-11-12T10:39:45;101258.00;;;25.26;41.16
75936;BME280;64614;32.062;34.834;2022-11-12T10:42:14;101273.38;;;25.27;41.29
75936;BME280;64614;32.062;34.834;2022-11-12T10:44:41;101271.75;;;25.26;41.44
75936;BME280;64614;32.062;34.834;2022-11-12T10:53:05;101261.25;;;25.28;42.06
75936;BME280;64614;32.062;34.834;2022-11-12T10:55:37;101272.25;;;25.28;42.55
75936;BME280;64614;32.062;34.834;2022-11-12T11:00:37;101268.72;;;25.37;42.96
75936;BME280;64614;32.062;34.834;2022-11-12T11:03:20;101264.19;;;25.32;43.35
75936;BME280;64614;32.062;34.834;2022-11-12T11:08:47;101268.38;;;25.29;43.67
75936;BME280;64614;32.062;34.834;2022-11-12T11:11:24;101262.09;;;25.38;43.56
75936;BME280;64614;32.062;34.834;2022-11-12T11:13:53;101259.75;;;25.45;43.53
75936;BME280;64614;32.062;34.834;2022-11-12T11:16:23;101271.69;;;25.40;43.80
75936;BME280;64614;32.062;34.834;2022-11-12T11:18:55;101267.81;;;25.41;44.00
75936;BME280;64614;32.062;34.834;2022-11-12T11:24:52;101269.00;;;25.49;44.00
75936;BME280;64614;32.062;34.834;2022-11-12T11:30:32;101267.09;;;25.58;44.42
75936;BME280;64614;32.062;34.834;2022-11-12T11:33:24;101280.06;;;25.67;44.16
75936;BME280;64614;32.062;34.834;2022-11-12T11:36:17;101272.59;;;25.58;44.26
75936;BME280;64614;32.062;34.834;2022-11-12T11:49:26;101271.38;;;25.82;43.78
75936;BME280;64614;32.062;34.834;2022-11-12T11:57:59;101269.34;;;26.14;42.98
75936;BME280;64614;32.062;34.834;2022-11-12T12:00:38;101257.88;;;26.12;42.86
75936;BME280;64614;32.062;34.834;2022-11-12T12:12:00;101255.41;;;26.02;43.76
75936;BME280;64614;32.062;34.834;2022-11-12T12:14:54;101248.09;;;25.97;43.59
75936;BME280;64614;32.062;34.834;2022-11-12T12:23:03;101245.47;;;25.92;43.79
75936;BME280;64614;32.062;34.834;2022-11-12T12:25:39;101245.81;;;25.90;43.92
75936;BME280;64614;32.062;34.834;2022-11-12T12:30:41;101242.09;;;25.86;44.12
75936;BME280;64614;32.062;34.834;2022-11-12T12:36:05;101244.19;;;25.80;44.91
75936;BME280;64614;32.062;34.834;2022-11-12T12:39:06;101238.97;;;25.79;45.07
75936;BME280;64614;32.062;34.834;2022-11-12T12:41:55;101246.75;;;25.77;45.20
75936;BME280;64614;32.062;34.834;2022-11-12T12:44:23;101237.69;;;25.76;45.14
75936;BME280;64614;32.062;34.834;2022-11-12T12:47:09;101244.03;;;25.77;45.30
75936;BME280;64614;32.062;34.834;2022-11-12T12:49:38;101241.25;;;25.77;45.58
75936;BME280;64614;32.062;34.834;2022-11-12T12:52:04;101241.44;;;25.80;45.39
75936;BME280;64614;32.062;34.834;2022-11-12T12:57:38;101243.03;;;25.73;45.26
75936;BME280;64614;32.062;34.834;2022-11-12T13:00:30;101244.16;;;25.72;45.66
75936;BME280;64614;32.062;34.834;2022-11-12T13:02:57;101247.56;;;25.69;45.41
75936;BME280;64614;32.062;34.834;2022-11-12T13:05:33;101244.34;;;25.84;45.60
75936;BME280;64614;32.062;34.834;2022-11-12T13:08:07;101253.31;;;26.07;44.59
75936;BME280;64614;32.062;34.834;2022-11-12T13:15:47;101248.25;;;26.01;46.90
75936;BME280;64614;32.062;34.834;2022-11-12T13:23:57;101254.28;;;26.03;46.32
75936;BME280;64614;32.062;34.834;2022-11-12T13:26:47;101252.47;;;26.07;46.43
75936;BME280;64614;32.062;34.834;2022-11-12T13:32:27;101248.44;;;25.95;39.14
75936;BME280;64614;32.062;34.834;2022-11-12T13:37:44;101261.69;;;25.93;41.49
75936;BME280;64614;32.062;34.834;2022-11-12T13:40:19;101260.88;;;25.93;41.96
75936;BME280;64614;32.062;34.834;2022-11-12T13:42:48;101255.19;;;25.89;42.15
75936;BME280;64614;32.062;34.834;2022-11-12T13:45:20;101255.53;;;25.88;42.60
75936;BME280;64614;32.062;34.834;2022-11-12T13:47:47;101256.47;;;25.83;42.74
75936;BME280;64614;32.062;34.834;2022-11-12T13:50:16;101251.44;;;25.76;43.58
75936;BME280;64614;32.062;34.834;2022-11-12T13:52:44;101260.66;;;25.72;43.63
75936;BME280;64614;32.062;34.834;2022-11-12T13:57:40;101267.94;;;25.68;43.79
75936;BME280;64614;32.062;34.834;2022-11-12T14:00:19;101272.59;;;25.67;43.46
75936;BME280;64614;32.062;34.834;2022-11-12T14:02:57;101268.06;;;25.62;43.50
75936;BME280;64614;32.062;34.834;2022-11-12T14:05:31;101270.00;;;25.62;43.53
75936;BME280;64614;32.062;34.834;2022-11-12T14:08:19;101270.97;;;25.57;43.77
75936;BME280;64614;32.062;34.834;2022-11-12T14:11:03;101278.09;;;25.58;43.27
75936;BME280;64614;32.062;34.834;2022-11-12T14:21:22;101285.66;;;25.53;43.44
75936;BME280;64614;32.062;34.834;2022-11-12T14:23:49;101280.50;;;25.51;43.49
75936;BME280;64614;32.062;34.834;2022-11-12T14:26:33;101288.25;;;25.49;43.20
75936;BME280;64614;32.062;34.834;2022-11-12T14:28:59;101297.63;;;25.48;43.45
75936;BME280;64614;32.062;34.834;2022-11-12T14:31:25;101297.44;;;25.44;43.17
75936;BME280;64614;32.062;34.834;2022-11-12T14:34:34;101296.31;;;25.45;42.94
75936;BME280;64614;32.062;34.834;2022-11-12T14:37:33;101302.94;;;25.44;43.12
75936;BME280;64614;32.062;34.834;2022-11-12T14:40:00;101299.38;;;25.44;43.02
75936;BME280;64614;32.062;34.834;2022-11-12T14:42:26;101307.44;;;25.40;42.78
75936;BME280;64614;32.062;34.834;2022-11-12T14:44:51;101306.94;;;25.38;42.16